Terminal Aerodrome Forecast
Issued by NWS

Home | Current Version | Previous Version | Text Only | Print | Product List | Glossary On
Versions: 1 2 3 4 5 6 7 8 9 10 11 12 13
000
FTAK31 PAFA 290538
TAFABT
TAF
PABT 290538Z 2906/3006 10004KT P6SM FEW050 FEW090
     FM291200 VRB03KT P6SM BKN090 BKN200
     FM292100 06005KT P6SM BKN060 BKN100=

USA.gov is the U.S. government's official web portal to all federal, state and local government web resources and services.